Skagway, AK

1:45 PM AKDT on August 30, 2016 (GMT -0800)
Skagway | | Change Station

Elev 16 ft 59.46 °N, 135.32 °W | Updated 52 minutes ago

Mostly Cloudy
Mostly Cloudy
63 °F
Feels Like 63 °F
N
14
Wind Variable Wind from NNE
Gusts 24 mph

Today
High -- | Low -- °F
--% Chance of Precip.
Yesterday
High -- | Low -- °F
Precip. -- in
Pressure 30.07 in
Visibility 10.0 miles
Clouds Mostly Cloudy 7500 ft
Mostly Cloudy 11000 ft
Dew Point 40 °F
Humidity 43%
Rainfall 0.00 in
Snow Depth Not available.
5:54 AM 8:07 PM
Waning Crescent, 2% visible
METAR PAGY 302053Z AUTO 03012G21KT 10SM BKN075 BKN110 17/04 A3007 RMK AO2 SLP182 T01720044 50000 TSNO
Pressure 30.07 in
Visibility 10.0 miles
Clouds Mostly Cloudy 7500 ft
Mostly Cloudy 11000 ft
Dew Point 40 °F
Humidity 43%
Rainfall 0.00 in
Snow Depth Not available.
5:54 AM 8:07 PM
Waning Crescent, 2% visible
METAR PAGY 302053Z AUTO 03012G21KT 10SM BKN075 BKN110 17/04 A3007 RMK AO2 SLP182 T01720044 50000 TSNO

10-Day Weather Forecast

Almanac

Astronomy

Aug. 30, 2016 Rise Set
Actual Time
Civil Twilight
Nautical Twilight
Astronomical Twilight
Moon
Length of Visible Light
Length of Day
Tomorrow will be .
, % of the Moon is Illuminated

Today's Extremes

State Highs State Lows

Community

WunderPhotos

Upload Photos

1,935,901 photos uploaded!

WunderBlog® & News

Nearby

Air Quality

  Air Quality AQ Index Pollutant
Not available.

Snow Depth

Station Depth Elevation

Earthquake Activity

City Distance Mag. Time & Date
Minimum magnitude displayed is 2.5.

Coastal Water Temperatures

Place Temperature

Stations

Nearby Weather Stations

Station Location Temp. Windchill Dew Point Humidity Wind Precip. Elev Updated Type
                   

Watches & Warnings

There are currently no watches in effect.